Time;durP1;ratioP1;P1;durP2;ratioP2;P2;SDS_P1;SDS_P2;PMS_P1;PMS_P2;Temp;Humidity;BMP_temperature;BMP_pressure;BME280_temperature;BME280_humidity;BME280_pressure;Samples;Min_cycle;Max_cycle;Signal;HPM_P1;HPM_P2
2021/08/17 00:00:59;;;;;;;3.65;2.38;;;;;;;13.97;67.72;97534.38;5092256;28;20524;-78
2021/08/17 00:03:25;;;;;;;4.40;2.03;;;;;;;13.97;67.08;97534.38;5059099;28;20501;-78
2021/08/17 00:05:51;;;;;;;4.90;2.50;;;;;;;13.91;67.84;97534.63;5092755;28;20040;-78
2021/08/17 00:08:17;;;;;;;3.17;2.30;;;;;;;13.80;68.22;97539.03;5093767;28;20086;-78
2021/08/17 00:10:42;;;;;;;3.92;2.22;;;;;;;13.74;67.75;97545.28;5075175;28;20040;-78
2021/08/17 00:13:08;;;;;;;4.63;2.22;;;;;;;13.72;67.48;97539.53;5093654;28;20486;-78
2021/08/17 00:15:35;;;;;;;5.38;2.40;;;;;;;13.76;67.56;97533.53;5093147;28;20035;-78
2021/08/17 00:18:01;;;;;;;5.55;2.88;;;;;;;13.80;67.82;97537.19;5075835;28;20032;-78
2021/08/17 00:20:27;;;;;;;4.85;2.97;;;;;;;13.84;67.64;97537.47;5092368;28;20515;-77
2021/08/17 00:22:53;;;;;;;5.05;2.67;;;;;;;13.84;67.75;97542.72;5058928;28;20039;-77
2021/08/17 00:25:19;;;;;;;5.90;3.22;;;;;;;13.91;67.54;97540.63;5092594;28;20410;-78
2021/08/17 00:27:44;;;;;;;5.40;2.97;;;;;;;13.87;66.92;97539.59;5093038;28;20396;-77
2021/08/17 00:30:10;;;;;;;7.45;3.58;;;;;;;13.88;67.37;97541.19;5093202;28;20053;-78
2021/08/17 00:32:36;;;;;;;6.28;3.40;;;;;;;13.91;67.37;97535.41;5076652;28;20028;-78
2021/08/17 00:35:02;;;;;;;6.57;3.10;;;;;;;13.91;66.95;97538.03;5076218;28;20027;-77
2021/08/17 00:37:28;;;;;;;5.50;2.65;;;;;;;13.92;67.14;97526.53;5075727;28;20128;-78
2021/08/17 00:39:55;;;;;;;8.32;3.40;;;;;;;13.90;66.59;97530.41;5076263;28;20099;-77
2021/08/17 00:42:21;;;;;;;4.97;2.80;;;;;;;13.92;66.47;97523.91;5077995;28;20036;-78
2021/08/17 00:44:46;;;;;;;7.63;3.15;;;;;;;13.90;66.66;97525.19;5076854;28;20039;-78
2021/08/17 00:47:13;;;;;;;5.22;2.38;;;;;;;13.88;66.92;97524.66;5076403;28;20073;-78
2021/08/17 00:49:39;;;;;;;5.07;3.25;;;;;;;13.94;66.74;97527.03;5076791;28;20542;-78
2021/08/17 00:52:05;;;;;;;5.50;2.78;;;;;;;13.92;66.84;97534.38;5094166;28;20061;-78
2021/08/17 00:54:31;;;;;;;8.25;2.95;;;;;;;13.92;66.74;97523.13;5077542;28;20051;-77
2021/08/17 00:56:59;;;;;;;6.15;2.88;;;;;;;13.85;67.62;97534.59;5094632;28;20039;-78
2021/08/17 00:59:29;;;;;;;4.90;2.63;;;;;;;13.84;67.45;97537.47;5076799;28;20614;-78
2021/08/17 01:01:55;;;;;;;6.25;2.88;;;;;;;13.82;67.39;97534.34;5099535;22;20130;-80
2021/08/17 01:04:21;;;;;;;5.95;2.83;;;;;;;13.91;67.03;97532.78;5036543;28;20044;-78
2021/08/17 01:06:46;;;;;;;5.57;2.95;;;;;;;13.86;67.22;97532.78;5052727;28;20445;-78
2021/08/17 01:09:11;;;;;;;4.03;2.28;;;;;;;13.80;67.51;97536.44;5019889;28;20028;-77
2021/08/17 01:11:44;;;;;;;5.18;2.78;;;;;;;13.61;67.45;97533.47;5070311;28;20032;-77
2021/08/17 01:14:09;;;;;;;5.10;2.35;;;;;;;13.68;67.55;97529.56;5016916;28;20029;-77
2021/08/17 01:16:35;;;;;;;6.22;3.22;;;;;;;13.61;67.83;97533.47;5036395;28;20493;-77
2021/08/17 01:19:00;;;;;;;4.05;2.50;;;;;;;13.47;67.91;97523.47;5070424;28;20032;-78
2021/08/17 01:21:26;;;;;;;5.97;3.17;;;;;;;13.43;67.99;97526.81;5035605;28;20536;-77
2021/08/17 01:23:51;;;;;;;7.57;2.60;;;;;;;13.35;67.70;97530.72;5052639;28;20082;-78
2021/08/17 01:26:17;;;;;;;4.82;2.95;;;;;;;13.25;67.78;97534.03;5019301;28;20435;-77
2021/08/17 01:28:42;;;;;;;6.50;2.85;;;;;;;13.22;68.28;97533.75;5052420;28;20043;-78
2021/08/17 01:31:07;;;;;;;6.40;3.33;;;;;;;13.19;68.39;97531.63;5018916;28;20024;-78
2021/08/17 01:33:34;;;;;;;4.95;2.50;;;;;;;13.15;68.21;97531.34;5019393;28;20115;-78
2021/08/17 01:36:01;;;;;;;5.00;3.05;;;;;;;13.15;68.84;97541.03;5052145;28;20102;-78
2021/08/17 01:38:26;;;;;;;5.45;3.08;;;;;;;13.07;68.49;97542.28;5019567;28;20059;-78
2021/08/17 01:40:52;;;;;;;6.82;3.58;;;;;;;13.05;68.61;97541.72;5035668;28;20214;-78
2021/08/17 01:43:21;;;;;;;6.65;3.65;;;;;;;13.07;68.54;97548.31;5050314;28;20116;-77
2021/08/17 01:46:02;;;;;;;7.18;4.30;;;;;;;12.97;68.59;97547.41;5035983;28;20036;-78
2021/08/17 01:48:30;;;;;;;6.30;3.55;;;;;;;13.08;68.26;97546.47;5035758;28;20145;-78
2021/08/17 01:50:55;;;;;;;6.85;3.83;;;;;;;13.09;68.45;97545.41;5034963;28;20077;-78
2021/08/17 01:53:22;;;;;;;7.20;3.97;;;;;;;13.07;68.42;97550.91;5033735;28;20475;-79
2021/08/17 01:55:48;;;;;;;5.70;3.60;;;;;;;13.07;68.32;97545.69;5049937;28;20029;-78
2021/08/17 01:58:14;;;;;;;5.90;3.65;;;;;;;13.04;68.47;97551.41;5032974;28;20395;-79
2021/08/17 02:00:39;;;;;;;5.50;3.38;;;;;;;13.00;68.41;97550.31;5032618;28;20029;-79
2021/08/17 02:03:07;;;;;;;8.30;3.95;;;;;;;12.90;69.09;97551.06;5050635;28;20051;-78
2021/08/17 02:05:33;;;;;;;4.70;2.95;;;;;;;12.94;68.30;97561.78;5056193;28;20482;-78
2021/08/17 02:07:58;;;;;;;5.78;3.35;;;;;;;12.87;68.41;97556.78;5052367;28;20032;-78
2021/08/17 02:10:23;;;;;;;4.85;3.10;;;;;;;12.85;68.47;97564.06;5049773;28;20078;-78
2021/08/17 02:12:49;;;;;;;6.05;3.20;;;;;;;12.81;68.37;97560.38;5050328;28;20036;-78
2021/08/17 02:15:14;;;;;;;6.13;3.15;;;;;;;12.78;68.54;97562.69;5016119;28;20025;-78
2021/08/17 02:17:39;;;;;;;6.85;3.40;;;;;;;12.75;68.56;97558.75;5031986;28;20463;-78
2021/08/17 02:20:05;;;;;;;5.80;3.30;;;;;;;12.71;68.81;97568.13;5031734;28;20155;-78
2021/08/17 02:22:31;;;;;;;6.68;3.58;;;;;;;12.68;68.92;97568.59;5015212;28;20033;-77
2021/08/17 02:24:56;;;;;;;5.22;3.08;;;;;;;12.67;68.60;97574.88;5031365;28;20446;-77
2021/08/17 02:27:21;;;;;;;4.43;2.75;;;;;;;12.62;68.54;97574.84;5015979;28;20368;-77
2021/08/17 02:29:47;;;;;;;5.35;2.85;;;;;;;12.53;69.38;97579.72;5047987;28;20040;-77
2021/08/17 02:32:12;;;;;;;6.55;3.35;;;;;;;12.51;68.88;97579.97;4998222;28;20128;-77
2021/08/17 02:34:37;;;;;;;5.15;3.00;;;;;;;12.50;68.95;97580.22;5031429;28;20024;-78
2021/08/17 02:37:03;;;;;;;5.55;3.08;;;;;;;12.47;68.98;97583.31;5031147;28;20032;-77
2021/08/17 02:39:28;;;;;;;5.55;3.20;;;;;;;12.51;69.11;97590.41;5014018;28;20095;-77
2021/08/17 02:41:54;;;;;;;5.38;3.17;;;;;;;12.49;69.38;97582.03;5031263;28;20032;-77
2021/08/17 02:44:22;;;;;;;6.25;3.00;;;;;;;12.51;68.95;97581.78;5031178;28;20033;-77
2021/08/17 02:46:47;;;;;;;5.75;2.88;;;;;;;12.51;69.30;97579.19;5048160;28;20668;-77
2021/08/17 02:49:13;;;;;;;6.03;3.20;;;;;;;12.49;68.97;97581.22;5031129;28;20039;-77
2021/08/17 02:51:38;;;;;;;6.20;3.25;;;;;;;12.51;68.69;97574.75;5030797;28;20033;-77
2021/08/17 02:54:06;;;;;;;8.43;4.13;;;;;;;12.46;68.92;97577.31;5064179;28;20082;-77
2021/08/17 02:56:32;;;;;;;6.43;3.30;;;;;;;12.49;68.70;97576.81;5034649;28;20688;-77
2021/08/17 02:58:57;;;;;;;6.85;3.72;;;;;;;12.45;69.13;97577.56;5034518;28;20067;-77
2021/08/17 03:01:22;;;;;;;9.13;4.28;;;;;;;12.42;69.21;97570.97;5038039;28;20510;-77
2021/08/17 03:03:48;;;;;;;6.53;3.60;;;;;;;12.44;69.01;97573.34;5018413;28;20044;-77
2021/08/17 03:06:13;;;;;;;7.82;4.10;;;;;;;12.35;68.82;97570.38;5035093;28;20025;-77
2021/08/17 03:08:38;;;;;;;6.43;3.30;;;;;;;12.33;68.86;97570.63;5002225;28;20060;-77
2021/08/17 03:11:05;;;;;;;7.65;3.90;;;;;;;12.28;68.98;97567.97;5018740;28;20029;-77
2021/08/17 03:13:31;;;;;;;7.22;4.03;;;;;;;12.26;69.22;97564.03;5001934;28;20495;-77
2021/08/17 03:15:57;;;;;;;9.57;4.68;;;;;;;12.16;69.68;97565.50;5034967;28;20498;-77
2021/08/17 03:18:22;;;;;;;9.48;4.13;;;;;;;12.22;69.64;97560.31;5034936;28;20029;-77
2021/08/17 03:20:48;;;;;;;8.70;4.10;;;;;;;12.20;69.21;97557.16;5001918;28;20400;-77
2021/08/17 03:23:14;;;;;;;7.65;4.35;;;;;;;12.23;69.49;97567.13;5019374;28;20021;-77
2021/08/17 03:25:40;;;;;;;9.25;4.82;;;;;;;12.22;69.32;97560.31;5018097;28;20037;-78
2021/08/17 03:28:06;;;;;;;9.75;4.90;;;;;;;12.31;69.29;97558.88;5035309;28;20049;-77
2021/08/17 03:30:31;;;;;;;9.75;5.50;;;;;;;12.34;69.50;97559.16;5034375;28;20025;-77
2021/08/17 03:32:57;;;;;;;11.40;5.40;;;;;;;12.39;69.45;97553.22;5052782;28;20558;-77
2021/08/17 03:35:22;;;;;;;11.27;5.10;;;;;;;12.37;69.69;97550.03;5034526;28;20422;-77
2021/08/17 03:37:48;;;;;;;8.82;4.63;;;;;;;12.42;69.68;97555.31;5017913;28;20040;-77
2021/08/17 03:40:16;;;;;;;12.18;5.50;;;;;;;12.35;69.75;97562.56;5052050;28;20032;-77
2021/08/17 03:42:41;;;;;;;10.73;5.82;;;;;;;12.44;70.14;97561.09;5006682;28;20719;-77
2021/08/17 03:45:08;;;;;;;12.93;5.82;;;;;;;12.36;70.44;97561.53;5039843;28;20100;-77
2021/08/17 03:47:34;;;;;;;14.23;6.18;;;;;;;12.34;70.05;97563.59;5020852;28;20086;-77
2021/08/17 03:49:59;;;;;;;10.93;5.43;;;;;;;12.33;70.51;97562.03;5048557;28;20040;-77
2021/08/17 03:52:25;;;;;;;12.88;5.45;;;;;;;12.35;70.34;97565.16;5043733;28;20498;-77
2021/08/17 03:54:50;;;;;;;12.55;5.90;;;;;;;12.33;69.93;97567.25;5017952;28;20028;-77
2021/08/17 03:57:16;;;;;;;12.77;6.45;;;;;;;12.35;70.07;97567.78;5050855;28;20059;-77
2021/08/17 03:59:41;;;;;;;12.77;5.78;;;;;;;12.41;70.38;97577.25;5050061;28;20037;-77
2021/08/17 04:02:07;;;;;;;14.60;6.28;;;;;;;12.41;70.36;97577.25;5050906;28;20475;-77
2021/08/17 04:04:32;;;;;;;10.95;5.47;;;;;;;12.45;70.33;97573.09;5051542;28;20550;-77
2021/08/17 04:06:57;;;;;;;13.50;6.40;;;;;;;12.47;70.25;97568.41;5034438;28;20261;-77
2021/08/17 04:09:23;;;;;;;13.20;5.85;;;;;;;12.53;70.72;97564.06;5049963;28;20052;-77
2021/08/17 04:11:48;;;;;;;14.48;6.38;;;;;;;12.61;71.04;97573.25;5051195;28;20407;-77
2021/08/17 04:14:14;;;;;;;15.98;7.43;;;;;;;12.65;70.74;97579.56;5034010;28;20029;-77
2021/08/17 04:16:39;;;;;;;16.73;7.80;;;;;;;12.69;70.65;97584.03;5050337;28;20055;-77
2021/08/17 04:19:04;;;;;;;17.08;7.57;;;;;;;12.71;71.31;97589.03;5033713;28;20035;-77
2021/08/17 04:21:30;;;;;;;15.73;7.45;;;;;;;12.75;70.91;97587.50;5019291;28;20147;-77
2021/08/17 04:23:57;;;;;;;15.95;7.38;;;;;;;12.77;71.00;97582.81;5036039;28;20039;-77
2021/08/17 04:26:23;;;;;;;16.55;7.70;;;;;;;12.85;70.82;97587.59;5033583;28;20078;-77
2021/08/17 04:28:48;;;;;;;21.90;8.07;;;;;;;12.87;71.15;97589.97;5017634;28;20033;-77
2021/08/17 04:31:14;;;;;;;20.80;9.38;;;;;;;12.93;71.21;97608.03;5033454;28;20537;-77
2021/08/17 04:33:39;;;;;;;18.08;8.75;;;;;;;12.98;71.25;97609.13;5060903;28;20060;-77
2021/08/17 04:36:04;;;;;;;18.50;8.82;;;;;;;13.02;70.92;97604.97;5036805;28;20518;-77
2021/08/17 04:38:30;;;;;;;17.02;8.20;;;;;;;13.12;70.44;97610.28;5036801;28;20028;-77
2021/08/17 04:40:55;;;;;;;16.73;8.70;;;;;;;13.09;70.88;97600.31;5052881;28;20503;-77
2021/08/17 04:43:21;;;;;;;18.98;8.93;;;;;;;13.16;70.48;97605.34;5071162;28;20483;-77
2021/08/17 04:45:47;;;;;;;16.35;8.60;;;;;;;13.20;70.16;97601.97;5020152;28;20039;-77
2021/08/17 04:48:12;;;;;;;19.08;8.75;;;;;;;13.26;70.25;97605.41;5037009;28;20051;-77
2021/08/17 04:50:37;;;;;;;18.10;8.30;;;;;;;13.21;70.63;97608.78;5035734;28;20036;-77
2021/08/17 04:53:03;;;;;;;16.90;9.13;;;;;;;13.21;70.46;97602.75;5035213;28;20333;-77
2021/08/17 04:55:29;;;;;;;21.05;9.75;;;;;;;13.23;70.23;97601.47;5036263;28;20068;-77
2021/08/17 04:57:57;;;;;;;17.35;9.52;;;;;;;13.27;70.29;97607.78;5020107;28;20067;-77
2021/08/17 05:00:25;;;;;;;21.85;9.50;;;;;;;13.29;70.67;97605.69;5051375;28;20036;-77
2021/08/17 05:02:51;;;;;;;19.25;9.40;;;;;;;13.36;70.36;97602.91;5035354;28;20041;-77
2021/08/17 05:05:16;;;;;;;21.10;9.82;;;;;;;13.37;71.18;97608.94;5051380;28;20071;-77
2021/08/17 05:07:42;;;;;;;25.05;10.07;;;;;;;13.41;71.12;97608.16;5018569;28;20114;-77
2021/08/17 05:10:15;;;;;;;22.50;10.25;;;;;;;13.38;70.60;97608.66;5034869;28;20114;-77
2021/08/17 05:12:40;;;;;;;23.52;10.57;;;;;;;13.59;70.54;97609.59;5014883;28;20095;-77
2021/08/17 05:15:07;;;;;;;23.17;9.90;;;;;;;13.59;70.71;97617.44;5031689;28;20067;-77
2021/08/17 05:17:33;;;;;;;21.75;10.10;;;;;;;13.76;70.10;97624.31;5015449;28;20074;-77
2021/08/17 05:19:59;;;;;;;24.23;11.57;;;;;;;13.74;70.56;97621.19;5014580;28;20040;-77
2021/08/17 05:22:25;;;;;;;27.88;11.05;;;;;;;13.87;69.99;97636.44;5041052;28;20029;-77
2021/08/17 05:24:50;;;;;;;23.90;10.80;;;;;;;13.90;70.23;97645.59;5047152;28;20521;-77
2021/08/17 05:27:16;;;;;;;23.80;11.10;;;;;;;13.96;70.07;97641.97;5039936;28;20037;-77
2021/08/17 05:29:41;;;;;;;24.70;11.07;;;;;;;14.04;69.96;97636.25;5031826;28;20047;-77
2021/08/17 05:32:07;;;;;;;23.90;10.95;;;;;;;14.16;69.33;97634.22;5015949;28;20503;-77
2021/08/17 05:34:32;;;;;;;28.30;12.20;;;;;;;14.17;70.03;97627.13;5032081;28;20029;-77
2021/08/17 05:37:00;;;;;;;27.30;12.60;;;;;;;14.30;69.52;97631.13;5032246;28;20296;-77
2021/08/17 05:39:26;;;;;;;25.65;12.18;;;;;;;14.41;70.03;97625.66;5032402;28;20121;-77
2021/08/17 05:41:51;;;;;;;25.52;12.18;;;;;;;14.54;68.82;97620.97;5032276;28;20462;-77
2021/08/17 05:44:17;;;;;;;25.80;12.35;;;;;;;14.63;68.35;97626.53;5032160;28;20033;-77
2021/08/17 05:46:43;;;;;;;21.83;11.35;;;;;;;14.56;68.86;97629.38;5049493;28;20090;-77
2021/08/17 05:49:08;;;;;;;25.88;11.85;;;;;;;14.72;68.62;97627.59;5052072;28;20067;-77
2021/08/17 05:51:34;;;;;;;24.45;12.30;;;;;;;14.76;69.20;97637.28;5031337;28;20082;-77
2021/08/17 05:53:59;;;;;;;20.50;10.25;;;;;;;14.88;67.30;97646.78;5015703;28;20025;-77
2021/08/17 05:56:24;;;;;;;20.67;10.93;;;;;;;14.82;67.83;97648.56;5031735;28;20112;-77
2021/08/17 05:58:50;;;;;;;23.52;12.18;;;;;;;14.80;67.71;97658.53;5031322;28;20062;-77
2021/08/17 06:01:15;;;;;;;25.30;11.35;;;;;;;14.73;68.18;97653.53;5025566;28;20033;-77
2021/08/17 06:03:40;;;;;;;23.00;10.57;;;;;;;14.72;68.03;97654.59;5014811;28;20048;-77
2021/08/17 06:06:06;;;;;;;19.42;10.60;;;;;;;14.83;67.79;97654.63;5031761;28;20703;-77
2021/08/17 06:08:31;;;;;;;23.58;11.38;;;;;;;14.77;68.11;97664.28;5049513;28;20029;-77
2021/08/17 06:10:56;;;;;;;21.27;10.35;;;;;;;14.87;68.28;97659.06;5032561;28;20283;-77
2021/08/17 06:13:23;;;;;;;24.52;11.05;;;;;;;14.92;68.29;97658.28;5018842;28;20284;-77
2021/08/17 06:15:50;;;;;;;23.58;11.73;;;;;;;14.99;68.54;97671.94;5051241;28;20060;-77
2021/08/17 06:18:16;;;;;;;25.17;11.68;;;;;;;15.03;68.27;97666.94;5052005;28;20423;-77
2021/08/17 06:20:41;;;;;;;23.35;12.57;;;;;;;15.01;67.13;97669.88;5050613;28;20080;-77
2021/08/17 06:23:06;;;;;;;23.73;11.98;;;;;;;15.06;67.98;97662.00;5016084;28;20396;-77
2021/08/17 06:25:33;;;;;;;19.90;11.57;;;;;;;15.06;67.29;97655.94;5019323;28;20028;-77
2021/08/17 06:27:58;;;;;;;24.80;12.68;;;;;;;15.17;67.94;97668.81;5068927;28;20067;-77
2021/08/17 06:30:24;;;;;;;23.58;12.88;;;;;;;15.25;67.58;97675.38;5069045;28;20506;-76
2021/08/17 06:32:49;;;;;;;22.35;11.25;;;;;;;15.28;67.10;97676.69;5051428;28;20047;-77
2021/08/17 06:35:15;;;;;;;26.10;12.82;;;;;;;15.30;67.46;97672.78;5068591;28;20056;-76
2021/08/17 06:37:41;;;;;;;24.42;12.52;;;;;;;15.45;67.67;97674.59;5034158;28;20489;-76
2021/08/17 06:40:07;;;;;;;20.67;12.65;;;;;;;15.60;66.47;97665.13;5034022;28;20124;-77
2021/08/17 06:42:33;;;;;;;27.52;12.40;;;;;;;15.64;65.90;97671.44;5034468;28;20410;-76
2021/08/17 06:44:59;;;;;;;22.30;11.93;;;;;;;15.70;64.93;97668.53;5034202;28;20024;-76
2021/08/17 06:47:26;;;;;;;21.95;11.77;;;;;;;15.72;65.12;97669.03;5034281;28;20078;-77
2021/08/17 06:49:51;;;;;;;21.38;10.90;;;;;;;15.76;65.72;97674.59;5046587;28;20087;-76
2021/08/17 06:52:17;;;;;;;28.02;13.60;;;;;;;15.70;66.88;97670.38;5030900;28;20044;-76
2021/08/17 06:54:42;;;;;;;25.88;13.35;;;;;;;16.02;66.42;97671.91;4998048;28;20029;-76
2021/08/17 06:57:08;;;;;;;21.73;11.63;;;;;;;16.13;65.37;97676.09;4998141;28;20033;-77
2021/08/17 06:59:33;;;;;;;21.80;11.88;;;;;;;16.32;64.75;97665.00;5014373;28;20082;-77
2021/08/17 07:01:58;;;;;;;23.33;12.48;;;;;;;16.51;63.71;97657.28;5016331;28;20379;-77
2021/08/17 07:04:24;;;;;;;20.88;11.18;;;;;;;16.50;63.80;97656.47;5034148;28;20043;-76
2021/08/17 07:06:49;;;;;;;21.15;11.63;;;;;;;16.76;63.55;97658.97;5050695;28;20056;-77
2021/08/17 07:09:15;;;;;;;23.52;12.85;;;;;;;17.09;62.38;97656.69;5033926;28;20032;-77
2021/08/17 07:11:40;;;;;;;19.20;12.77;;;;;;;17.19;60.92;97661.88;5050831;28;20032;-77
2021/08/17 07:14:05;;;;;;;24.92;13.65;;;;;;;17.17;61.16;97653.44;5034613;28;20024;-77
2021/08/17 07:16:31;;;;;;;22.00;12.25;;;;;;;17.29;60.39;97663.63;5050784;28;20268;-77
2021/08/17 07:18:56;;;;;;;21.67;12.50;;;;;;;17.21;60.76;97665.03;5033841;28;20036;-77
2021/08/17 07:21:22;;;;;;;24.40;13.20;;;;;;;17.23;60.75;97668.94;5033052;28;20503;-77
2021/08/17 07:23:47;;;;;;;23.92;12.75;;;;;;;17.20;62.18;97673.97;5051172;28;20423;-77
2021/08/17 07:26:13;;;;;;;23.75;12.60;;;;;;;17.42;61.70;97676.16;5018112;28;20036;-77
2021/08/17 07:28:38;;;;;;;22.25;13.23;;;;;;;17.66;61.20;97676.22;5018670;28;20039;-78
2021/08/17 07:31:03;;;;;;;20.42;12.52;;;;;;;18.09;60.78;97673.69;5018705;28;20039;-77
2021/08/17 07:33:29;;;;;;;21.05;12.88;;;;;;;18.43;57.78;97670.13;5017971;28;20024;-77
2021/08/17 07:35:54;;;;;;;21.65;13.10;;;;;;;18.67;56.77;97677.22;5050898;28;20107;-77
2021/08/17 07:38:20;;;;;;;19.05;12.45;;;;;;;18.81;57.33;97683.34;5034777;28;20033;-77
2021/08/17 07:40:45;;;;;;;19.63;12.15;;;;;;;18.62;58.17;97690.47;5068615;28;20048;-77
2021/08/17 07:43:11;;;;;;;21.25;12.23;;;;;;;18.54;57.65;97683.97;5051685;28;20032;-77
2021/08/17 07:45:36;;;;;;;19.48;12.13;;;;;;;18.32;56.38;97677.41;5032608;28;20626;-77
2021/08/17 07:48:02;;;;;;;19.30;11.98;;;;;;;17.99;58.33;97684.34;5036567;28;20024;-77
2021/08/17 07:50:27;;;;;;;17.63;10.70;;;;;;;17.78;58.50;97679.25;5037476;28;20024;-77
2021/08/17 07:52:53;;;;;;;19.83;11.85;;;;;;;17.53;59.73;97688.19;5034940;28;20025;-77
2021/08/17 07:55:18;;;;;;;19.38;11.88;;;;;;;17.32;60.56;97689.41;5022342;28;20369;-77
2021/08/17 07:57:44;;;;;;;21.85;11.73;;;;;;;17.24;61.49;97690.78;5018159;28;20021;-77
2021/08/17 08:00:11;;;;;;;19.35;11.65;;;;;;;17.13;61.44;97686.66;5001203;28;20246;-77
2021/08/17 08:02:37;;;;;;;18.30;10.85;;;;;;;17.16;61.42;97688.75;5034265;28;20040;-77
2021/08/17 08:05:06;;;;;;;19.77;11.00;;;;;;;17.08;63.42;97694.56;5018333;28;20040;-77
2021/08/17 08:07:32;;;;;;;19.77;11.68;;;;;;;16.96;63.02;97692.28;5017735;28;20387;-77
2021/08/17 08:09:57;;;;;;;20.40;11.45;;;;;;;17.08;62.43;97691.94;5017526;28;20036;-77
2021/08/17 08:12:25;;;;;;;18.38;10.50;;;;;;;17.03;61.66;97696.19;5037140;28;20489;-77
2021/08/17 08:14:50;;;;;;;16.45;10.02;;;;;;;17.10;61.27;97697.72;5037471;28;20032;-77
2021/08/17 08:17:16;;;;;;;18.98;10.95;;;;;;;17.16;61.03;97704.53;5053856;28;20166;-77
2021/08/17 08:19:41;;;;;;;18.42;10.45;;;;;;;17.23;61.88;97700.50;5036829;28;20036;-77
2021/08/17 08:22:08;;;;;;;17.15;10.65;;;;;;;17.16;61.75;97704.53;5020320;28;20077;-76
2021/08/17 08:24:34;;;;;;;17.88;10.60;;;;;;;17.18;60.95;97697.91;5020201;28;20147;-76
2021/08/17 08:26:59;;;;;;;15.57;9.98;;;;;;;17.29;60.89;97688.13;5037981;28;20104;-76
2021/08/17 08:29:25;;;;;;;18.30;10.68;;;;;;;17.33;60.21;97691.00;5032933;28;20032;-76
2021/08/17 08:31:50;;;;;;;17.88;10.48;;;;;;;17.29;61.96;97703.91;5017064;28;20041;-76
2021/08/17 08:34:15;;;;;;;17.58;10.20;;;;;;;17.50;61.26;97709.03;5033384;28;20029;-76
2021/08/17 08:36:41;;;;;;;17.08;9.63;;;;;;;17.42;61.88;97716.44;5033121;28;20041;-76
2021/08/17 08:39:06;;;;;;;18.48;9.63;;;;;;;17.45;59.39;97712.47;5049214;28;20160;-76
2021/08/17 08:41:32;;;;;;;15.10;9.25;;;;;;;17.79;58.84;97709.03;5033359;28;20024;-76
2021/08/17 08:43:58;;;;;;;20.92;10.25;;;;;;;17.76;59.96;97701.69;5045431;28;20028;-76
2021/08/17 08:46:23;;;;;;;21.33;11.18;;;;;;;17.33;61.82;97699.66;5036492;28;20044;-76
2021/08/17 08:48:51;;;;;;;16.10;10.05;;;;;;;17.60;59.77;97699.19;5052478;28;20074;-76
2021/08/17 08:51:19;;;;;;;20.27;10.77;;;;;;;17.56;61.00;97706.06;5051571;28;20037;-76
2021/08/17 08:53:44;;;;;;;16.13;10.55;;;;;;;17.78;59.95;97697.69;5050643;28;20036;-76
2021/08/17 08:56:10;;;;;;;17.70;10.45;;;;;;;17.73;60.53;97684.56;5016044;28;20025;-76
2021/08/17 08:58:36;;;;;;;18.30;9.48;;;;;;;17.93;60.56;97691.53;5015826;28;20040;-76
2021/08/17 09:01:02;;;;;;;18.88;11.02;;;;;;;17.86;60.88;97674.47;5061972;28;20040;-76
2021/08/17 09:03:45;;;;;;;19.27;10.90;;;;;;;17.31;60.61;97667.56;5070391;28;20041;-76
2021/08/17 09:06:29;;;;;;;18.73;11.43;;;;;;;17.42;61.29;97676.94;5019237;28;20032;-77
2021/08/17 09:09:11;;;;;;;17.23;11.00;;;;;;;17.28;61.80;97681.28;5035789;28;20032;-76
2021/08/17 09:11:40;;;;;;;16.02;10.15;;;;;;;17.44;60.61;97689.81;5035750;28;20024;-76
2021/08/17 09:14:30;;;;;;;16.25;9.75;;;;;;;17.27;61.34;97698.13;5035859;28;20043;-77
2021/08/17 09:17:00;;;;;;;17.48;11.23;;;;;;;17.26;61.53;97693.94;5036109;28;20086;-76
2021/08/17 09:19:39;;;;;;;20.02;10.63;;;;;;;17.42;61.21;97692.72;5018588;28;20029;-76
2021/08/17 09:22:13;;;;;;;21.17;10.80;;;;;;;17.37;61.86;97702.53;5052232;28;20101;-76
2021/08/17 09:24:39;;;;;;;17.63;11.20;;;;;;;17.48;62.22;97690.06;5069838;28;20035;-77
2021/08/17 09:27:16;;;;;;;18.00;10.27;;;;;;;17.65;62.70;97685.19;5018732;28;20063;-76
2021/08/17 09:29:47;;;;;;;21.02;10.85;;;;;;;17.79;59.80;97678.19;5034985;28;20643;-76
2021/08/17 09:32:20;;;;;;;17.60;10.27;;;;;;;18.11;60.69;97687.41;5019042;28;20033;-76
2021/08/17 09:34:48;;;;;;;17.75;10.43;;;;;;;18.28;59.04;97694.06;5044477;28;20095;-76
2021/08/17 09:37:13;;;;;;;17.33;9.73;;;;;;;18.36;60.22;97696.06;5051969;28;20047;-76
2021/08/17 09:39:41;;;;;;;16.30;9.20;;;;;;;18.42;60.75;97691.50;5018100;28;20029;-76
2021/08/17 09:42:14;;;;;;;20.58;10.77;;;;;;;18.22;59.23;97692.56;5035227;28;20040;-76
2021/08/17 09:44:40;;;;;;;16.65;9.45;;;;;;;18.46;58.86;97687.25;5018603;28;20036;-76
2021/08/17 09:47:09;;;;;;;17.95;10.38;;;;;;;18.35;59.39;97681.31;5032459;28;20028;-76
2021/08/17 09:49:34;;;;;;;15.95;9.60;;;;;;;18.76;57.74;97675.50;5047852;28;20418;-76
2021/08/17 09:52:15;;;;;;;18.38;9.70;;;;;;;18.62;59.32;97680.72;5027776;28;20047;-76
2021/08/17 09:54:48;;;;;;;18.77;10.40;;;;;;;18.64;59.01;97683.84;4998900;28;20115;-76
2021/08/17 09:57:15;;;;;;;16.83;9.63;;;;;;;18.91;57.74;97674.53;5031355;28;20037;-76
2021/08/17 09:59:42;;;;;;;17.02;9.73;;;;;;;19.15;58.45;97674.44;5031282;28;20095;-78
2021/08/17 10:02:08;;;;;;;15.57;9.32;;;;;;;19.54;56.36;97675.94;5032165;28;20419;-78
2021/08/17 10:04:40;;;;;;;14.27;9.18;;;;;;;19.60;55.01;97677.44;5015946;28;20067;-78
2021/08/17 10:07:08;;;;;;;14.35;9.25;;;;;;;19.53;55.17;97670.94;5032318;28;20029;-77
2021/08/17 10:09:35;;;;;;;13.05;8.48;;;;;;;19.68;56.20;97672.56;5014787;28;20499;-77
2021/08/17 10:12:02;;;;;;;15.38;9.23;;;;;;;19.63;56.02;97671.56;5031663;28;20037;-76
2021/08/17 10:14:28;;;;;;;13.98;9.32;;;;;;;19.64;55.44;97673.13;5031209;28;20017;-76
2021/08/17 10:16:54;;;;;;;14.40;9.05;;;;;;;19.65;55.65;97661.50;4998589;28;20112;-76
2021/08/17 10:19:23;;;;;;;15.13;9.07;;;;;;;19.74;57.08;97656.34;5031201;28;20112;-76
2021/08/17 10:21:51;;;;;;;14.90;8.73;;;;;;;20.08;56.65;97654.41;5038704;28;20111;-77
2021/08/17 10:24:42;;;;;;;14.07;8.75;;;;;;;20.25;53.16;97656.44;5034524;28;20600;-77
2021/08/17 10:27:13;;;;;;;12.48;7.95;;;;;;;20.22;52.20;97657.84;5018744;28;20195;-77
2021/08/17 10:30:05;;;;;;;15.95;9.50;;;;;;;20.13;52.33;97651.66;5051310;28;20068;-77
2021/08/17 10:32:37;;;;;;;11.65;7.95;;;;;;;20.39;51.23;97638.69;5069256;28;20032;-77
2021/08/17 10:35:03;;;;;;;15.05;9.10;;;;;;;20.30;52.78;97633.31;5069514;28;20391;-77
2021/08/17 10:37:28;;;;;;;12.82;7.32;;;;;;;20.25;53.11;97633.41;5034275;28;20609;-77
2021/08/17 10:39:53;;;;;;;12.23;6.97;;;;;;;20.58;49.86;97630.63;5034199;28;20104;-76
2021/08/17 10:42:25;;;;;;;11.13;7.65;;;;;;;20.61;50.39;97627.38;5017749;28;20390;-76
2021/08/17 10:44:51;;;;;;;13.27;7.15;;;;;;;21.04;48.73;97615.59;5051027;28;20075;-77
2021/08/17 10:47:35;;;;;;;10.95;7.53;;;;;;;20.64;48.81;97618.88;5068956;28;20043;-77
2021/08/17 10:50:01;;;;;;;12.13;7.90;;;;;;;20.74;50.98;97637.16;5050468;28;20284;-77
2021/08/17 10:52:35;;;;;;;8.57;5.90;;;;;;;20.75;51.09;97622.88;5034365;28;20068;-76
2021/08/17 10:55:22;;;;;;;9.05;6.40;;;;;;;20.98;52.04;97620.22;5030664;28;20037;-76
2021/08/17 10:58:05;;;;;;;8.90;6.22;;;;;;;21.50;47.08;97606.53;5014581;28;20040;-76
2021/08/17 11:00:54;;;;;;;7.50;5.40;;;;;;;21.41;46.86;97603.81;5030903;28;20044;-77
2021/08/17 11:03:56;;;;;;;8.15;5.20;;;;;;;21.42;45.59;97602.72;5014280;28;20041;-76
2021/08/17 11:06:49;;;;;;;6.47;4.63;;;;;;;21.18;45.21;97604.91;4915883;29;20120;-76
2021/08/17 11:09:28;;;;;;;6.75;4.85;;;;;;;21.34;45.71;97603.47;4947502;29;20135;-76
2021/08/17 11:12:03;;;;;;;6.93;5.80;;;;;;;21.37;45.89;97589.63;4910872;29;20042;-76
2021/08/17 11:14:30;;;;;;;6.40;4.80;;;;;;;21.98;46.00;97600.44;4957200;28;20386;-76
2021/08/17 11:17:06;;;;;;;8.70;5.00;;;;;;;21.78;42.19;97596.53;4934984;28;20180;-76
2021/08/17 11:19:45;;;;;;;8.43;4.75;;;;;;;21.77;43.66;97583.56;4950399;28;20082;-77
2021/08/17 11:22:13;;;;;;;7.38;4.95;;;;;;;21.84;42.78;97605.09;4940889;29;20051;-76
2021/08/17 11:24:46;;;;;;;9.52;5.10;;;;;;;21.54;42.15;97614.66;4919877;29;20027;-76